Time;durP1;ratioP1;P1;durP2;ratioP2;P2;SDS_P1;SDS_P2;PMS_P1;PMS_P2;Temp;Humidity;BMP_temperature;BMP_pressure;BME280_temperature;BME280_humidity;BME280_pressure;Samples;Min_cycle;Max_cycle;Signal;HPM_P1;HPM_P2
2021/12/09 00:01:03;;;;;;;9.25;4.40;;;;;;;3.61;74.52;98216.44;4971529;28;20395;-78
2021/12/09 00:03:35;;;;;;;9.48;3.28;;;;;;;3.61;75.07;98219.88;4968159;28;20039;-78
2021/12/09 00:06:01;;;;;;;9.23;3.00;;;;;;;3.61;75.01;98219.03;4950597;28;20055;-78
2021/12/09 00:08:29;;;;;;;9.35;2.90;;;;;;;3.61;74.48;98213.84;4952121;28;20519;-79
2021/12/09 00:11:04;;;;;;;8.65;2.65;;;;;;;3.60;74.85;98213.00;4963819;28;20094;-79
2021/12/09 00:13:30;;;;;;;10.27;3.03;;;;;;;3.58;74.72;98208.78;4971839;28;20039;-78
2021/12/09 00:15:57;;;;;;;7.75;3.33;;;;;;;3.57;74.98;98210.53;4971064;28;20031;-78
2021/12/09 00:18:23;;;;;;;11.13;2.88;;;;;;;3.57;74.99;98207.06;4971993;28;20034;-78
2021/12/09 00:20:48;;;;;;;7.72;2.53;;;;;;;3.56;74.73;98211.44;4972073;28;20039;-78
2021/12/09 00:23:14;;;;;;;9.60;3.25;;;;;;;3.56;74.66;98211.44;4976264;28;20480;-79
2021/12/09 00:25:40;;;;;;;8.40;1.98;;;;;;;3.55;75.07;98220.19;4952741;28;20041;-76
2021/12/09 00:28:06;;;;;;;7.78;2.70;;;;;;;3.56;75.18;98215.81;4951649;28;20047;-76
2021/12/09 00:30:32;;;;;;;8.68;2.92;;;;;;;3.56;74.87;98211.44;4949644;28;20042;-76
2021/12/09 00:33:00;;;;;;;8.13;2.70;;;;;;;3.58;74.79;98219.19;4951512;28;20133;-76
2021/12/09 00:35:32;;;;;;;13.23;4.10;;;;;;;3.57;74.83;98223.56;4950979;28;20046;-76
2021/12/09 00:38:05;;;;;;;10.15;3.83;;;;;;;3.57;75.18;98222.69;4952692;28;20137;-77
2021/12/09 00:40:31;;;;;;;10.57;3.95;;;;;;;3.56;74.92;98224.47;4951552;28;20053;-77
2021/12/09 00:42:57;;;;;;;7.00;2.60;;;;;;;3.51;75.35;98217.78;4951405;29;20035;-77
2021/12/09 00:45:23;;;;;;;6.88;3.28;;;;;;;3.50;75.49;98221.31;4950420;28;20529;-77
2021/12/09 00:47:49;;;;;;;5.63;2.38;;;;;;;3.50;75.40;98218.72;4952756;28;20063;-77
2021/12/09 00:50:15;;;;;;;5.05;2.50;;;;;;;3.49;75.34;98219.59;4964393;28;20039;-77
2021/12/09 00:52:41;;;;;;;5.88;2.60;;;;;;;3.49;75.27;98228.25;4970996;28;20023;-77
2021/12/09 00:55:08;;;;;;;10.27;2.70;;;;;;;3.48;75.46;98225.75;4961582;28;20039;-78
2021/12/09 00:57:35;;;;;;;6.63;2.97;;;;;;;3.44;75.43;98231.06;4959790;28;20058;-77
2021/12/09 01:00:08;;;;;;;4.38;2.40;;;;;;;3.44;75.56;98233.69;4959721;28;20047;-78
2021/12/09 01:02:33;;;;;;;11.93;3.10;;;;;;;3.42;75.42;98232.94;4962153;28;20031;-77
2021/12/09 01:04:58;;;;;;;8.98;2.90;;;;;;;3.39;75.54;98240.00;4964542;28;20040;-78
2021/12/09 01:07:24;;;;;;;9.40;2.30;;;;;;;3.41;75.63;98243.41;4943554;29;20043;-77
2021/12/09 01:09:49;;;;;;;7.57;3.83;;;;;;;3.39;75.38;98243.47;4955930;28;20071;-77
2021/12/09 01:12:15;;;;;;;10.30;2.50;;;;;;;3.39;75.62;98250.44;4959427;28;20048;-77
2021/12/09 01:14:40;;;;;;;7.32;3.13;;;;;;;3.34;75.74;98255.84;4956909;28;20054;-77
2021/12/09 01:17:08;;;;;;;4.22;2.67;;;;;;;3.33;75.56;98248.13;4955531;28;20634;-76
2021/12/09 01:19:34;;;;;;;13.05;3.00;;;;;;;3.33;75.93;98253.31;4952950;28;20046;-77
2021/12/09 01:21:59;;;;;;;8.95;3.40;;;;;;;3.31;75.92;98250.78;4938435;28;20047;-79
2021/12/09 01:24:25;;;;;;;7.05;2.65;;;;;;;3.33;76.09;98240.31;4955829;28;20507;-77
2021/12/09 01:26:50;;;;;;;4.57;3.13;;;;;;;3.34;76.00;98250.63;4955579;28;20035;-76
2021/12/09 01:29:20;;;;;;;17.55;3.58;;;;;;;3.32;75.96;98251.63;4952952;28;20058;-76
2021/12/09 01:31:55;;;;;;;11.63;2.88;;;;;;;3.31;75.71;98248.19;4952961;28;20439;-76
2021/12/09 01:34:21;;;;;;;10.13;3.08;;;;;;;3.31;75.84;98261.19;4955503;28;20113;-75
2021/12/09 01:36:49;;;;;;;5.70;2.50;;;;;;;3.34;76.07;98253.25;4955513;28;20502;-77
2021/12/09 01:39:15;;;;;;;6.50;3.88;;;;;;;3.34;75.53;98250.63;4957491;28;20043;-77
2021/12/09 01:41:40;;;;;;;8.77;3.80;;;;;;;3.36;75.88;98255.78;4958896;28;20043;-77
2021/12/09 01:44:06;;;;;;;6.93;2.97;;;;;;;3.33;75.97;98254.16;4953720;28;20098;-77
2021/12/09 01:46:31;;;;;;;7.05;3.67;;;;;;;3.33;75.53;98250.72;4955811;28;20039;-77
2021/12/09 01:48:57;;;;;;;10.20;2.88;;;;;;;3.33;75.89;98248.97;4955152;28;20045;-78
2021/12/09 01:51:22;;;;;;;4.53;2.55;;;;;;;3.34;75.70;98258.44;4955449;28;20039;-77
2021/12/09 01:53:49;;;;;;;10.40;3.08;;;;;;;3.33;75.67;98255.94;4953504;28;20395;-77
2021/12/09 01:56:21;;;;;;;4.63;2.60;;;;;;;3.32;75.65;98255.06;4952099;28;20102;-78
2021/12/09 01:58:52;;;;;;;9.00;2.90;;;;;;;3.33;75.72;98261.97;4957797;28;20035;-78
2021/12/09 02:01:18;;;;;;;13.20;2.80;;;;;;;3.33;75.91;98263.75;4919322;28;20047;-78
2021/12/09 02:03:44;;;;;;;7.03;2.95;;;;;;;3.30;75.88;98261.25;4938911;28;20043;-78
2021/12/09 02:06:09;;;;;;;9.48;4.45;;;;;;;3.29;75.85;98259.56;4956511;28;20611;-78
2021/12/09 02:08:35;;;;;;;4.88;2.30;;;;;;;3.28;75.78;98253.53;4953057;28;20035;-77
2021/12/09 02:11:00;;;;;;;8.50;2.50;;;;;;;3.31;75.95;98262.97;4962463;28;20415;-77
2021/12/09 02:13:27;;;;;;;6.10;2.63;;;;;;;3.31;76.19;98268.16;4953141;28;20050;-78
2021/12/09 02:15:54;;;;;;;11.43;2.75;;;;;;;3.29;75.80;98259.56;4953257;28;20102;-78
2021/12/09 02:18:21;;;;;;;6.35;3.55;;;;;;;3.29;75.89;98257.81;4971007;28;20113;-76
2021/12/09 02:21:02;;;;;;;10.50;3.20;;;;;;;3.27;75.61;98251.81;4972864;28;20405;-77
2021/12/09 02:23:28;;;;;;;6.38;2.97;;;;;;;3.25;75.76;98251.06;4956681;28;20065;-76
2021/12/09 02:25:53;;;;;;;10.88;2.85;;;;;;;3.26;75.58;98244.94;4952995;29;20495;-78
2021/12/09 02:28:18;;;;;;;6.13;2.97;;;;;;;3.25;75.58;98245.00;4951859;28;20109;-77
2021/12/09 02:30:44;;;;;;;7.10;2.90;;;;;;;3.23;75.68;98238.09;4953464;28;20560;-77
2021/12/09 02:33:10;;;;;;;14.95;3.38;;;;;;;3.24;75.68;98238.94;4953000;28;20054;-78
2021/12/09 02:35:38;;;;;;;7.90;2.80;;;;;;;3.23;75.54;98235.50;4951904;28;20454;-78
2021/12/09 02:38:04;;;;;;;11.00;2.45;;;;;;;3.25;75.95;98229.38;4957054;28;20053;-78
2021/12/09 02:40:32;;;;;;;5.45;2.45;;;;;;;3.25;75.59;98235.44;4970887;28;20557;-77
2021/12/09 02:42:57;;;;;;;11.63;2.70;;;;;;;3.21;75.65;98232.09;4958270;28;20089;-78
2021/12/09 02:45:24;;;;;;;8.75;2.45;;;;;;;3.23;75.79;98240.72;4944137;28;20039;-77
2021/12/09 02:47:49;;;;;;;6.57;3.25;;;;;;;3.21;75.29;98236.47;4967302;28;20046;-77
2021/12/09 02:50:14;;;;;;;10.80;2.60;;;;;;;3.21;75.60;98237.31;4950922;28;20046;-77
2021/12/09 02:52:39;;;;;;;7.03;2.22;;;;;;;3.22;75.80;98246.84;4967706;28;20061;-77
2021/12/09 02:55:06;;;;;;;14.57;3.20;;;;;;;3.22;75.34;98236.44;4962585;28;20055;-77
2021/12/09 02:57:31;;;;;;;6.63;2.25;;;;;;;3.23;75.58;98255.50;4961714;28;20035;-77
2021/12/09 02:59:56;;;;;;;7.68;3.75;;;;;;;3.21;75.38;98247.75;4957505;29;20035;-77
2021/12/09 03:02:22;;;;;;;4.03;2.00;;;;;;;3.23;75.48;98243.31;4956931;28;20038;-77
2021/12/09 03:04:50;;;;;;;11.32;3.15;;;;;;;3.24;75.40;98246.75;4956963;28;20101;-79
2021/12/09 03:07:29;;;;;;;9.25;3.65;;;;;;;3.22;75.69;98238.16;4954718;28;20047;-80
2021/12/09 03:10:00;;;;;;;4.55;2.33;;;;;;;3.22;75.56;98249.44;4956921;28;20038;-79
2021/12/09 03:12:39;;;;;;;11.77;2.42;;;;;;;3.21;75.44;98252.94;4953617;28;20038;-76
2021/12/09 03:15:05;;;;;;;6.65;4.85;;;;;;;3.23;75.71;98245.91;4958627;28;20050;-76
2021/12/09 03:17:30;;;;;;;8.23;2.78;;;;;;;3.22;75.52;98243.38;4964833;28;20039;-76
2021/12/09 03:19:56;;;;;;;8.32;2.67;;;;;;;3.18;75.63;98245.28;4957600;28;20050;-76
2021/12/09 03:22:22;;;;;;;5.28;2.40;;;;;;;3.19;75.50;98243.50;4957684;28;20035;-77
2021/12/09 03:24:49;;;;;;;6.63;2.70;;;;;;;3.18;75.30;98242.66;4956226;28;20039;-76
2021/12/09 03:27:14;;;;;;;7.82;2.53;;;;;;;3.16;75.58;98239.28;4956348;28;20052;-77
2021/12/09 03:29:40;;;;;;;11.55;3.03;;;;;;;3.17;75.39;98246.16;4956846;28;20030;-78
2021/12/09 03:32:10;;;;;;;4.80;2.90;;;;;;;3.17;75.52;98246.16;4956006;28;20399;-77
2021/12/09 03:34:37;;;;;;;5.00;2.45;;;;;;;3.19;75.38;98249.56;4959614;28;20031;-76
2021/12/09 03:37:08;;;;;;;10.63;2.70;;;;;;;3.18;75.32;98257.47;4972160;28;20039;-76
2021/12/09 03:39:35;;;;;;;7.15;2.38;;;;;;;3.15;75.68;98258.44;4958430;28;20035;-77
2021/12/09 03:42:02;;;;;;;4.53;3.65;;;;;;;3.15;75.65;98257.56;4952168;28;20062;-77
2021/12/09 03:44:28;;;;;;;4.35;2.60;;;;;;;3.16;75.43;98267.09;4952241;29;20042;-78
2021/12/09 03:46:56;;;;;;;7.32;2.20;;;;;;;3.11;75.64;98264.69;4953054;28;20035;-79
2021/12/09 03:49:23;;;;;;;9.90;2.50;;;;;;;3.11;75.59;98259.47;4956800;28;20060;-76
2021/12/09 03:51:49;;;;;;;8.05;3.28;;;;;;;3.12;75.54;98268.13;4953589;28;20373;-78
2021/12/09 03:54:15;;;;;;;10.00;2.47;;;;;;;3.09;75.54;98263.91;4952606;28;20050;-78
2021/12/09 03:56:41;;;;;;;5.90;2.63;;;;;;;3.10;75.42;98270.81;4950772;28;20035;-78
2021/12/09 03:59:08;;;;;;;7.93;3.55;;;;;;;3.12;75.75;98261.16;4952853;28;20122;-78
2021/12/09 04:01:35;;;;;;;9.05;2.83;;;;;;;3.12;75.39;98252.50;4952392;28;20040;-79
2021/12/09 04:04:00;;;;;;;11.90;4.00;;;;;;;3.12;75.49;98249.91;4937198;28;20042;-78
2021/12/09 04:06:29;;;;;;;10.38;2.92;;;;;;;3.10;75.27;98252.59;4952999;28;20115;-78
2021/12/09 04:08:55;;;;;;;7.63;2.97;;;;;;;3.09;75.18;98256.09;4953402;28;20031;-78
2021/12/09 04:11:20;;;;;;;10.25;2.92;;;;;;;3.08;75.33;98246.59;4954279;28;20047;-78
2021/12/09 04:13:46;;;;;;;7.47;2.65;;;;;;;3.06;75.40;98253.63;4951870;28;20039;-78
2021/12/09 04:16:11;;;;;;;10.05;2.53;;;;;;;3.07;75.32;98254.47;4968782;28;20043;-78
2021/12/09 04:18:39;;;;;;;6.63;3.03;;;;;;;3.08;75.20;98256.16;4961036;28;20538;-78
2021/12/09 04:21:05;;;;;;;6.32;2.83;;;;;;;3.04;75.26;98258.03;4955408;28;20134;-78
2021/12/09 04:23:31;;;;;;;8.85;2.70;;;;;;;3.03;75.29;98253.75;4966714;28;20031;-78
2021/12/09 04:25:57;;;;;;;7.80;3.00;;;;;;;3.05;75.22;98258.88;4954815;28;20178;-79
2021/12/09 04:28:23;;;;;;;12.77;3.88;;;;;;;3.06;75.03;98265.81;4954342;28;20138;-78
2021/12/09 04:30:49;;;;;;;7.15;2.42;;;;;;;3.05;75.21;98262.31;4953683;28;20499;-78
2021/12/09 04:33:14;;;;;;;15.88;3.30;;;;;;;3.04;75.12;98265.84;4953593;28;20047;-79
2021/12/09 04:35:40;;;;;;;9.45;2.88;;;;;;;3.03;75.17;98256.38;4951746;28;20403;-78
2021/12/09 04:38:06;;;;;;;11.60;3.25;;;;;;;3.01;75.08;98264.22;4953136;28;20442;-78
2021/12/09 04:40:31;;;;;;;8.40;3.10;;;;;;;2.99;75.10;98273.84;4956482;28;20494;-78
2021/12/09 04:42:57;;;;;;;7.90;3.33;;;;;;;3.00;74.95;98279.91;4936119;28;20035;-78
2021/12/09 04:45:23;;;;;;;7.68;3.53;;;;;;;3.00;75.05;98282.50;4950381;28;20058;-77
2021/12/09 04:47:48;;;;;;;5.95;3.20;;;;;;;3.01;74.72;98286.81;4952763;28;20054;-77
2021/12/09 04:50:13;;;;;;;4.82;2.42;;;;;;;2.99;74.92;98283.44;4951778;28;20718;-77
2021/12/09 04:52:39;;;;;;;5.38;3.00;;;;;;;3.04;74.77;98288.44;4953235;28;20082;-77
2021/12/09 04:55:07;;;;;;;7.40;2.45;;;;;;;3.03;74.73;98298.03;4954000;28;20055;-77
2021/12/09 04:57:33;;;;;;;7.40;3.25;;;;;;;3.01;74.58;98302.44;4960274;28;20573;-77
2021/12/09 04:59:59;;;;;;;10.85;2.70;;;;;;;2.97;74.65;98303.47;4962317;28;20055;-77
2021/12/09 05:02:32;;;;;;;7.78;2.97;;;;;;;2.98;74.63;98305.19;4944615;28;20027;-77
2021/12/09 05:04:57;;;;;;;7.70;3.20;;;;;;;2.96;74.59;98312.19;4959181;28;20031;-77
2021/12/09 05:07:23;;;;;;;16.23;2.92;;;;;;;2.96;74.87;98314.81;4955420;28;20063;-76
2021/12/09 05:09:52;;;;;;;3.90;2.20;;;;;;;2.97;74.64;98308.69;4952708;28;20110;-76
2021/12/09 05:12:21;;;;;;;8.18;4.53;;;;;;;2.96;74.74;98304.41;4946855;28;20123;-76
2021/12/09 05:14:47;;;;;;;7.60;2.75;;;;;;;2.94;74.55;98303.59;4959218;28;20499;-76
2021/12/09 05:17:14;;;;;;;6.20;3.08;;;;;;;2.92;74.96;98313.22;4967232;28;20038;-77
2021/12/09 05:19:40;;;;;;;7.35;4.00;;;;;;;2.92;74.60;98318.44;4973008;28;20034;-75
2021/12/09 05:22:06;;;;;;;8.90;3.70;;;;;;;2.90;74.74;98315.03;4970679;28;20031;-76
2021/12/09 05:24:34;;;;;;;7.45;2.67;;;;;;;2.87;74.92;98317.78;4970324;28;20125;-77
2021/12/09 05:27:00;;;;;;;6.18;2.97;;;;;;;2.82;75.08;98317.97;4972536;28;20118;-76
2021/12/09 05:29:32;;;;;;;8.98;3.42;;;;;;;2.81;75.04;98318.91;4954728;28;20046;-76
2021/12/09 05:32:13;;;;;;;5.40;2.40;;;;;;;2.80;75.16;98327.59;4970986;28;20050;-76
2021/12/09 05:34:38;;;;;;;13.35;5.88;;;;;;;2.79;75.40;98328.50;4973972;28;20031;-77
2021/12/09 05:37:06;;;;;;;5.95;2.90;;;;;;;2.79;74.98;98344.97;4973291;28;20071;-76
2021/12/09 05:39:32;;;;;;;13.60;3.67;;;;;;;2.78;75.36;98339.81;4970027;28;20034;-77
2021/12/09 05:41:58;;;;;;;11.23;2.75;;;;;;;2.78;74.98;98332.88;4969570;28;20510;-77
2021/12/09 05:44:23;;;;;;;10.25;2.75;;;;;;;2.78;75.10;98334.59;4971494;28;20034;-77
2021/12/09 05:46:49;;;;;;;7.18;3.10;;;;;;;2.74;75.14;98336.50;4969148;28;20043;-76
2021/12/09 05:49:15;;;;;;;7.32;3.60;;;;;;;2.72;75.21;98343.53;4973772;28;20069;-76
2021/12/09 05:51:42;;;;;;;9.75;3.40;;;;;;;2.73;74.91;98341.75;4973807;28;20042;-77
2021/12/09 05:54:08;;;;;;;7.70;2.90;;;;;;;2.70;75.10;98345.34;4956894;28;20042;-76
2021/12/09 05:56:34;;;;;;;7.03;5.10;;;;;;;2.70;75.08;98350.53;4972781;28;20050;-76
2021/12/09 05:59:00;;;;;;;10.68;3.63;;;;;;;2.69;74.75;98348.88;4975165;28;20521;-77
2021/12/09 06:01:25;;;;;;;6.15;3.30;;;;;;;2.66;75.37;98359.41;4975269;28;20061;-75
2021/12/09 06:03:50;;;;;;;12.52;3.03;;;;;;;2.61;75.31;98357.88;4972751;28;20042;-76
2021/12/09 06:06:16;;;;;;;6.00;3.03;;;;;;;2.61;75.37;98356.13;4979005;28;20035;-78
2021/12/09 06:08:42;;;;;;;7.30;2.50;;;;;;;2.62;75.27;98362.19;4982496;28;20050;-79
2021/12/09 06:11:09;;;;;;;5.15;2.60;;;;;;;2.63;75.14;98363.84;4976684;28;20063;-79
2021/12/09 06:13:37;;;;;;;6.78;2.70;;;;;;;2.61;75.19;98366.53;4960480;28;20090;-79
2021/12/09 06:16:04;;;;;;;7.20;3.60;;;;;;;2.62;75.53;98370.00;4978908;28;20070;-79
2021/12/09 06:18:29;;;;;;;7.32;3.20;;;;;;;2.62;75.15;98373.44;4980105;28;20057;-78
2021/12/09 06:20:55;;;;;;;7.18;2.83;;;;;;;2.65;75.08;98380.25;4966854;28;20023;-77
2021/12/09 06:23:20;;;;;;;39.90;4.22;;;;;;;2.65;74.81;98373.28;4968242;28;20065;-75
2021/12/09 06:25:46;;;;;;;10.00;3.33;;;;;;;2.67;74.90;98381.06;4962167;28;20035;-76
2021/12/09 06:28:11;;;;;;;11.68;3.78;;;;;;;2.66;75.13;98374.13;4963116;28;20530;-78
2021/12/09 06:30:37;;;;;;;12.93;4.53;;;;;;;2.67;74.73;98373.25;4969793;28;20028;-78
2021/12/09 06:33:05;;;;;;;8.40;3.90;;;;;;;2.68;74.72;98382.72;4966601;28;20089;-77
2021/12/09 06:35:32;;;;;;;7.13;3.45;;;;;;;2.68;74.66;98374.94;4959207;28;20032;-77
2021/12/09 06:37:57;;;;;;;5.80;3.17;;;;;;;2.68;74.87;98373.16;4961415;28;20078;-75
2021/12/09 06:40:24;;;;;;;7.82;2.85;;;;;;;2.69;74.32;98376.63;4955776;28;20047;-77
2021/12/09 06:42:51;;;;;;;8.07;3.05;;;;;;;2.71;74.75;98382.63;4938086;28;20461;-76
2021/12/09 06:45:18;;;;;;;14.32;5.53;;;;;;;2.68;74.70;98378.38;4958057;28;20043;-76
2021/12/09 06:47:44;;;;;;;8.88;6.60;;;;;;;2.69;74.71;98371.44;4964168;28;20041;-76
2021/12/09 06:50:12;;;;;;;13.93;3.10;;;;;;;2.68;74.98;98382.72;4964408;28;20118;-78
2021/12/09 06:52:38;;;;;;;11.68;3.13;;;;;;;2.66;74.90;98385.41;4961492;28;20123;-77
2021/12/09 06:55:06;;;;;;;7.30;3.72;;;;;;;2.62;75.21;98383.84;4958182;28;20039;-77
2021/12/09 06:57:32;;;;;;;9.02;4.07;;;;;;;2.64;75.07;98386.38;4962424;28;20327;-76
2021/12/09 06:59:57;;;;;;;9.38;3.75;;;;;;;2.57;75.17;98390.97;4958053;28;20039;-76
2021/12/09 07:02:23;;;;;;;9.07;4.97;;;;;;;2.60;75.30;98395.22;4953560;28;20151;-76
2021/12/09 07:04:48;;;;;;;12.27;5.50;;;;;;;2.55;75.49;98401.44;4951505;28;20035;-77
2021/12/09 07:07:13;;;;;;;6.18;3.13;;;;;;;2.54;75.48;98394.53;4953381;28;20612;-78
2021/12/09 07:09:40;;;;;;;14.52;4.28;;;;;;;2.52;75.96;98398.13;4956186;28;20037;-79
2021/12/09 07:12:06;;;;;;;8.38;3.85;;;;;;;2.51;75.81;98399.88;4954720;28;20039;-78
2021/12/09 07:14:31;;;;;;;14.15;4.45;;;;;;;2.51;76.01;98402.47;4952895;28;20046;-78
2021/12/09 07:16:56;;;;;;;16.35;3.63;;;;;;;2.50;76.02;98410.31;4952276;28;20035;-78
2021/12/09 07:19:22;;;;;;;12.15;4.47;;;;;;;2.54;76.01;98404.09;4952609;28;20495;-79
2021/12/09 07:21:47;;;;;;;12.88;5.07;;;;;;;2.54;75.81;98407.56;4953434;28;20054;-77
2021/12/09 07:24:13;;;;;;;11.27;4.15;;;;;;;2.52;76.00;98406.75;4954505;28;20027;-77
2021/12/09 07:26:38;;;;;;;10.27;4.22;;;;;;;2.51;76.50;98404.19;4953536;28;20050;-77
2021/12/09 07:29:04;;;;;;;6.75;3.45;;;;;;;2.53;76.37;98398.03;4951735;28;20057;-77
2021/12/09 07:31:30;;;;;;;19.40;4.45;;;;;;;2.53;76.45;98400.63;4953122;28;20372;-78
2021/12/09 07:33:56;;;;;;;13.07;5.03;;;;;;;2.54;76.32;98398.91;4968339;28;20114;-76
2021/12/09 07:36:23;;;;;;;14.80;4.32;;;;;;;2.57;76.36;98406.59;4958258;28;20062;-77
2021/12/09 07:38:48;;;;;;;10.05;4.38;;;;;;;2.57;76.22;98402.22;4959907;28;20437;-77
2021/12/09 07:41:15;;;;;;;7.63;4.28;;;;;;;2.56;76.47;98407.50;4956158;28;20130;-77
2021/12/09 07:43:41;;;;;;;9.90;4.85;;;;;;;2.57;76.60;98409.19;4952638;28;20035;-77
2021/12/09 07:46:06;;;;;;;10.32;4.63;;;;;;;2.58;76.50;98405.66;4953633;28;20128;-77
2021/12/09 07:48:32;;;;;;;8.88;4.68;;;;;;;2.58;76.66;98393.53;4954437;28;20039;-77
2021/12/09 07:50:57;;;;;;;8.32;4.05;;;;;;;2.61;76.85;98399.50;4968753;28;20047;-78
2021/12/09 07:53:24;;;;;;;9.80;3.58;;;;;;;2.65;76.40;98414.09;4975310;28;20146;-77
2021/12/09 07:55:51;;;;;;;9.13;4.50;;;;;;;2.66;76.50;98403.63;4981778;28;20129;-75
2021/12/09 07:58:17;;;;;;;11.98;5.03;;;;;;;2.69;76.19;98400.91;4977751;28;20479;-75
2021/12/09 08:00:42;;;;;;;10.95;4.60;;;;;;;2.72;76.07;98402.53;4958532;28;20050;-76
2021/12/09 08:03:08;;;;;;;9.65;4.35;;;;;;;2.73;76.71;98396.41;4964837;28;20921;-76
2021/12/09 08:05:36;;;;;;;10.55;3.90;;;;;;;2.77;76.09;98392.78;4964536;28;20114;-77
2021/12/09 08:08:03;;;;;;;16.63;4.70;;;;;;;2.78;76.12;98397.06;4961679;28;20102;-78
2021/12/09 08:10:28;;;;;;;13.93;5.20;;;;;;;2.80;76.29;98398.69;4943663;28;20515;-78
2021/12/09 08:12:54;;;;;;;8.73;3.90;;;;;;;2.79;76.41;98396.19;4957761;28;20106;-77
2021/12/09 08:15:20;;;;;;;18.13;3.90;;;;;;;2.79;75.98;98394.41;4961405;28;20043;-76
2021/12/09 08:17:58;;;;;;;8.65;4.43;;;;;;;2.83;76.22;98394.28;4962289;28;20039;-76
2021/12/09 08:20:25;;;;;;;10.52;3.92;;;;;;;2.88;76.11;98394.94;4959925;28;20094;-76
2021/12/09 08:22:51;;;;;;;10.88;3.90;;;;;;;2.94;75.81;98402.53;4959339;28;20042;-76
2021/12/09 08:25:16;;;;;;;9.95;4.40;;;;;;;2.96;75.88;98390.28;4965641;28;20110;-77
2021/12/09 08:27:43;;;;;;;17.30;5.55;;;;;;;3.05;75.34;98389.06;4972357;28;20043;-78
2021/12/09 08:30:11;;;;;;;8.35;4.38;;;;;;;3.15;75.51;98396.44;4972785;28;20089;-77
2021/12/09 08:32:36;;;;;;;14.35;5.18;;;;;;;3.22;75.21;98390.06;4972752;28;20030;-76
2021/12/09 08:35:03;;;;;;;13.00;4.45;;;;;;;3.33;75.19;98397.41;4972256;28;20065;-71
2021/12/09 08:37:29;;;;;;;15.75;4.90;;;;;;;3.42;74.58;98399.66;4970273;28;20035;-70
2021/12/09 08:39:56;;;;;;;8.10;3.45;;;;;;;3.52;74.49;98400.09;4969475;28;20461;-73
2021/12/09 08:42:21;;;;;;;10.48;4.53;;;;;;;3.60;74.30;98397.16;4974457;28;20026;-73
2021/12/09 08:44:46;;;;;;;12.20;4.07;;;;;;;3.64;73.92;98389.16;4972613;28;20196;-71
2021/12/09 08:47:12;;;;;;;14.98;4.82;;;;;;;3.64;73.76;98396.09;4971188;28;20046;-71
2021/12/09 08:49:37;;;;;;;8.38;3.40;;;;;;;3.63;74.07;98405.69;4974770;28;20121;-70
2021/12/09 08:52:04;;;;;;;10.52;4.55;;;;;;;3.65;73.96;98396.03;4953687;28;20031;-71
2021/12/09 08:54:29;;;;;;;9.30;3.40;;;;;;;3.65;73.92;98398.66;4970692;28;20046;-71
2021/12/09 08:56:58;;;;;;;8.38;4.28;;;;;;;3.69;74.09;98401.94;4969582;28;20049;-71
2021/12/09 08:59:25;;;;;;;5.95;3.38;;;;;;;3.73;73.71;98402.69;4968282;28;20566;-72
2021/12/09 09:01:51;;;;;;;7.93;4.15;;;;;;;3.77;73.25;98407.69;4947022;28;20052;-71
2021/12/09 09:04:17;;;;;;;10.52;5.10;;;;;;;3.88;73.21;98410.66;4956930;28;20043;-72
2021/12/09 09:06:54;;;;;;;11.43;4.68;;;;;;;3.98;72.87;98405.88;4963014;28;20050;-72
2021/12/09 09:09:20;;;;;;;10.50;4.03;;;;;;;4.01;72.97;98403.16;4943687;28;20042;-71
2021/12/09 09:11:47;;;;;;;10.13;4.50;;;;;;;4.11;72.64;98407.94;4952502;28;20038;-77
2021/12/09 09:14:12;;;;;;;7.30;4.38;;;;;;;4.23;72.16;98404.78;4964706;28;20141;-78
2021/12/09 09:16:38;;;;;;;9.00;4.05;;;;;;;4.25;72.27;98418.59;4965964;28;20121;-78
2021/12/09 09:19:05;;;;;;;14.15;4.60;;;;;;;4.29;71.94;98417.56;4965042;28;20054;-77
2021/12/09 09:21:31;;;;;;;10.23;3.80;;;;;;;4.25;71.80;98416.84;4965777;28;20053;-78
2021/12/09 09:23:57;;;;;;;8.85;4.95;;;;;;;4.27;71.92;98425.44;4970102;28;20121;-78
2021/12/09 09:26:23;;;;;;;9.65;4.07;;;;;;;4.33;71.52;98420.84;4965556;28;20039;-77
2021/12/09 09:28:48;;;;;;;8.60;3.75;;;;;;;4.47;71.29;98426.28;4949565;28;20035;-77
2021/12/09 09:31:14;;;;;;;10.15;4.68;;;;;;;4.86;69.79;98420.97;4950446;28;20050;-75
2021/12/09 09:33:40;;;;;;;11.52;4.13;;;;;;;4.91;69.67;98429.41;4948714;28;20712;-77
2021/12/09 09:36:05;;;;;;;9.50;4.57;;;;;;;4.84;69.87;98435.00;4946817;29;20039;-77
2021/12/09 09:38:31;;;;;;;9.48;4.07;;;;;;;4.88;69.14;98432.19;4951977;28;20130;-76
2021/12/09 09:41:12;;;;;;;9.30;4.55;;;;;;;5.03;69.21;98421.91;4951490;28;20062;-76
2021/12/09 09:43:57;;;;;;;8.65;4.70;;;;;;;4.93;69.25;98426.75;4942156;29;20051;-76
2021/12/09 09:46:28;;;;;;;11.70;5.68;;;;;;;4.90;68.88;98425.13;4950222;28;20084;-77
2021/12/09 09:48:56;;;;;;;11.05;4.57;;;;;;;4.88;68.79;98423.50;4959787;28;20045;-76
2021/12/09 09:51:24;;;;;;;14.95;4.55;;;;;;;4.79;69.10;98430.00;4972927;28;20053;-76
2021/12/09 09:53:50;;;;;;;8.93;4.30;;;;;;;4.84;69.05;98433.22;4970958;28;20513;-77
2021/12/09 09:56:19;;;;;;;11.02;4.65;;;;;;;4.83;68.71;98434.16;4955617;28;20066;-76
2021/12/09 09:58:50;;;;;;;10.85;3.78;;;;;;;4.73;69.12;98431.16;4969790;28;20061;-77
2021/12/09 10:01:16;;;;;;;6.65;4.05;;;;;;;4.78;69.02;98432.69;4959837;28;20043;-78
2021/12/09 10:03:47;;;;;;;8.98;3.70;;;;;;;4.74;68.92;98419.75;4954035;28;20043;-77
2021/12/09 10:06:15;;;;;;;12.73;4.00;;;;;;;4.73;68.87;98425.06;4934052;29;20518;-78
2021/12/09 10:08:41;;;;;;;6.32;3.75;;;;;;;4.78;69.03;98432.69;4959349;28;20105;-77
2021/12/09 10:11:07;;;;;;;7.82;5.07;;;;;;;4.67;69.15;98433.19;4957343;28;20499;-78
2021/12/09 10:13:36;;;;;;;11.77;4.30;;;;;;;4.71;68.69;98424.31;4948004;28;20044;-79
2021/12/09 10:16:06;;;;;;;7.32;4.40;;;;;;;4.69;68.93;98429.59;4931673;29;20039;-79
2021/12/09 10:18:44;;;;;;;9.02;3.50;;;;;;;4.79;68.64;98435.22;4908056;29;20043;-77
2021/12/09 10:21:12;;;;;;;7.80;4.25;;;;;;;4.85;68.64;98424.50;4960114;28;20372;-77
2021/12/09 10:23:46;;;;;;;11.02;5.72;;;;;;;4.86;68.55;98425.34;4958958;28;20050;-78
2021/12/09 10:26:32;;;;;;;8.63;4.28;;;;;;;4.87;68.58;98414.84;4975405;28;20049;-78
2021/12/09 10:29:01;;;;;;;6.75;4.60;;;;;;;4.85;68.46;98411.44;4945709;28;20046;-76
2021/12/09 10:31:31;;;;;;;6.63;3.55;;;;;;;4.91;68.95;98416.34;4955768;28;20116;-77
2021/12/09 10:34:35;;;;;;;10.02;5.47;;;;;;;4.93;68.49;98401.47;4953804;28;20051;-77
2021/12/09 10:37:21;;;;;;;10.65;4.70;;;;;;;4.91;68.97;98405.06;4936531;28;20027;-77
2021/12/09 10:39:56;;;;;;;8.63;4.30;;;;;;;4.87;68.59;98396.56;4949372;28;20109;-78
2021/12/09 10:42:37;;;;;;;9.13;4.53;;;;;;;4.93;69.32;98398.00;4949074;28;20035;-76
2021/12/09 10:45:11;;;;;;;5.80;4.38;;;;;;;4.97;69.57;98391.69;4948761;28;20118;-79
2021/12/09 10:50:27;;;;;;;9.38;4.40;;;;;;;5.01;69.53;98393.25;4948899;28;20806;-76
2021/12/09 10:53:16;;;;;;;6.93;4.15;;;;;;;4.97;69.39;98390.84;4949693;28;20039;-77
2021/12/09 10:55:42;;;;;;;9.18;4.05;;;;;;;4.91;68.79;98395.47;4948071;28;20062;-77
2021/12/09 10:58:10;;;;;;;10.13;4.53;;;;;;;4.90;69.05;98396.41;4949533;28;20055;-78
2021/12/09 11:00:38;;;;;;;6.50;3.67;;;;;;;4.90;69.26;98398.16;4953248;28;20062;-78
2021/12/09 11:03:25;;;;;;;8.25;4.75;;;;;;;4.88;69.18;98392.16;4961888;28;20098;-77
2021/12/09 11:05:59;;;;;;;7.00;4.18;;;;;;;4.87;68.86;98391.34;4978356;28;20047;-78
2021/12/09 11:08:31;;;;;;;9.10;4.78;;;;;;;4.82;69.05;98395.91;4966736;28;20038;-76
2021/12/09 11:11:07;;;;;;;9.05;5.22;;;;;;;4.81;69.26;98381.16;4958211;28;20111;-75
2021/12/09 11:13:57;;;;;;;12.70;5.20;;;;;;;4.74;69.40;98385.81;4966447;28;20081;-76
2021/12/09 11:16:31;;;;;;;12.23;6.32;;;;;;;4.80;69.23;98379.50;4966184;28;20117;-75
2021/12/09 11:19:07;;;;;;;7.43;4.85;;;;;;;4.80;68.71;98376.88;4968511;28;20042;-76
2021/12/09 11:21:37;;;;;;;8.43;4.65;;;;;;;4.85;69.18;98376.63;4968816;28;20043;-76
2021/12/09 11:24:12;;;;;;;8.80;4.30;;;;;;;4.82;69.49;98368.94;4968471;28;20050;-77
2021/12/09 11:26:51;;;;;;;6.03;4.15;;;;;;;4.79;69.05;98367.34;4968208;28;20046;-77
2021/12/09 11:29:24;;;;;;;12.45;4.00;;;;;;;4.92;69.47;98372.81;4952564;28;20047;-78
2021/12/09 11:31:58;;;;;;;5.97;3.50;;;;;;;5.02;68.29;98368.84;4971139;28;20098;-77
2021/12/09 11:34:27;;;;;;;5.70;3.50;;;;;;;5.14;68.13;98364.75;4968678;28;20042;-77
2021/12/09 11:37:03;;;;;;;13.10;4.70;;;;;;;5.22;68.40;98367.84;4968200;28;20049;-78
2021/12/09 11:39:33;;;;;;;11.38;4.32;;;;;;;5.13;68.74;98363.91;4936297;28;20049;-76
2021/12/09 11:42:18;;;;;;;7.90;4.38;;;;;;;5.23;69.11;98364.28;4966489;28;21490;-77
2021/12/09 11:44:44;;;;;;;5.32;3.88;;;;;;;5.15;69.95;98371.69;4969234;28;20043;-77